Pryor, Oklahoma
Current Conditions -  °F | °C
As of 3:35 PM on Friday 28 Nov 2014 (Local Time) from KGCM Reporting Station
Clear Clear  
Wind Chill: 63°   Ceiling: Unl
Heat Index: 63°   Visibility: 10mi
Dew Point: 37°   Wind: 17mph
Humidity: 39%   Direction: 180°S
Pressure: 29.94"   Gusts: 25mph
Location:  36.31°N, 95.32°W
Report Text: KGCM 282135Z AUTO 18015G22KT 10SM CLR 17/03 A2994 RMK AO2
Loading
Personal Weather Stations






























Interactive Weather Map New forecast layout! Learn more

10-Day Weather Forecast

Advertisements
Track Severe Weather on mobile